Davenport, IA (52801)

12:37 AM CST on February 09, 2016 (GMT -0600)
Southeast Davenport | | Change Station
CLOSE
Current Station
Personal Weather Station
Location: Davenport, IA
Elevation: 659 ft
Nearby Weather Stations
Active Advisory: Special Statement

Elev 659 ft 41.54 °N, 90.56 °W | Updated 40 seconds ago

Snow
Snow
15.8 °F
Feels Like 16 °F
N
2.7
Wind Variable Wind from West
Gusts 4.7 mph

Today
High -- | Low -- °F
--% Chance of Precip.
Yesterday
High -- | Low -- °F
Precip. -- in
Pressure 29.85 in
Visibility 5.0 miles
Clouds Few 1700 ft
Few 2900 ft
Overcast 3400 ft
Windchill 16 °F
Dew Point 7 °F
Humidity 67%
Rainfall 0.00 in
Snow Depth Not available.
7:05 AM 5:27 PM
New Moon, 1% visible
SPECI KDVN 090612Z AUTO 32015KT 5SM -SN FEW017 FEW029 OVC034 M09/M12 A2985 RMK AO2 P0000 T10891122
Pressure 29.85 in
Visibility 5.0 miles
Clouds Few 1700 ft
Few 2900 ft
Overcast 3400 ft
Windchill 16 °F
Dew Point 7 °F
Humidity 67%
Rainfall 0.00 in
Snow Depth Not available.
7:05 AM 5:27 PM
New Moon, 1% visible
SPECI KDVN 090612Z AUTO 32015KT 5SM -SN FEW017 FEW029 OVC034 M09/M12 A2985 RMK AO2 P0000 T10891122

10-Day Weather Forecast

Almanac

Astronomy

Feb. 09, 2016 Rise Set
Actual Time
Civil Twilight
Nautical Twilight
Astronomical Twilight
Moon
Length of Visible Light
Length of Day
Tomorrow will be .
, % of the Moon is Illuminated

Today's Extremes

State Highs State Lows

Community

WunderPhotos

Upload Photos

1,891,571 photos uploaded!

WunderBlog® & News

Nearby

Air Quality

  Air Quality AQ Index Pollutant
Not available.

Snow Depth

Station Depth Elevation

Earthquake Activity

City Distance Mag. Time & Date
Minimum magnitude displayed is 2.5.

Coastal Water Temperatures

Place Temperature

Stations

Nearby Weather Stations

Station Location Temp. Windchill Dew Point Humidity Wind Precip. Elev Updated Type
                   

Watches & Warnings

Special Statement
Issued: 11:08 PM CST Feb. 8, 2016 – National Weather Service

... Light snow and flurries through 2 am...

Areas of flurries and light snow will continue through 2 am before
diminishing. Any additional snow totals will be light with a dusting
to possibly a tenth or two of fresh powdery snow. Area roads remain
in mostly good condition from Iowa Department of Transportation with
patchy snow possible on some roadways.

Motorist should drive defensively if they observed snow and ice on
area roadways.


Nichols